Time;durP1;ratioP1;P1;durP2;ratioP2;P2;SDS_P1;SDS_P2;PMS_P1;PMS_P2;Temp;Humidity;BMP_temperature;BMP_pressure;BME280_temperature;BME280_humidity;BME280_pressure;Samples;Min_cycle;Max_cycle;Signal;HPM_P1;HPM_P2
2023/09/05 00:02:15;;;;;;;21.33;20.07;;;;;;;;;;5099620;28;20495;-79
2023/09/05 00:04:44;;;;;;;21.43;20.23;;;;;;;;;;5100033;28;20929;-79
2023/09/05 00:07:12;;;;;;;20.90;19.77;;;;;;;;;;5100442;28;20458;-78
2023/09/05 00:09:39;;;;;;;21.20;20.10;;;;;;;;;;5099559;28;20487;-80
2023/09/05 00:12:06;;;;;;;20.10;19.00;;;;;;;;;;5100086;28;20899;-80
2023/09/05 00:14:34;;;;;;;20.60;19.33;;;;;;;;;;5100068;28;20436;-79
2023/09/05 00:17:03;;;;;;;20.07;19.07;;;;;;;;;;5100231;28;20471;-79
2023/09/05 00:19:30;;;;;;;20.47;19.27;;;;;;;;;;5099854;28;20931;-80
2023/09/05 00:21:57;;;;;;;20.90;19.40;;;;;;;;;;5099065;28;20499;-80
2023/09/05 00:24:23;;;;;;;21.20;19.70;;;;;;;;;;5099887;28;20444;-79
2023/09/05 00:26:50;;;;;;;20.67;19.47;;;;;;;;;;5099774;28;20458;-79
2023/09/05 00:29:19;;;;;;;20.70;19.50;;;;;;;;;;5100247;28;20452;-80
2023/09/05 00:31:46;;;;;;;20.37;19.07;;;;;;;;;;5099890;28;20810;-79
2023/09/05 00:34:15;;;;;;;21.63;20.03;;;;;;;;;;5099432;28;20963;-79
2023/09/05 00:36:42;;;;;;;20.50;19.30;;;;;;;;;;5096586;28;20494;-80
2023/09/05 00:39:09;;;;;;;21.10;19.90;;;;;;;;;;5096862;28;20444;-80
2023/09/05 00:41:37;;;;;;;20.60;19.50;;;;;;;;;;5096395;28;20452;-78
2023/09/05 00:44:05;;;;;;;20.70;19.60;;;;;;;;;;5097035;28;20283;-79
2023/09/05 00:46:33;;;;;;;20.33;19.03;;;;;;;;;;5097243;28;20427;-79
2023/09/05 00:49:02;;;;;;;21.10;20.00;;;;;;;;;;5096688;28;20443;-80
2023/09/05 00:51:32;;;;;;;20.83;19.63;;;;;;;;;;5095835;28;20419;-79
2023/09/05 00:53:59;;;;;;;20.80;19.70;;;;;;;;;;5096110;28;20471;-79
2023/09/05 00:56:27;;;;;;;19.97;18.97;;;;;;;;;;5096582;28;20490;-79
2023/09/05 00:58:54;;;;;;;20.47;19.37;;;;;;;;;;5088190;28;20462;-79
2023/09/05 01:01:21;;;;;;;20.47;19.37;;;;;;;;;;5075426;28;20988;-80
2023/09/05 01:03:48;;;;;;;20.40;19.10;;;;;;;;;;5076308;28;20501;-79
2023/09/05 01:06:22;;;;;;;20.10;19.00;;;;;;;;;;5075997;28;20450;-79
2023/09/05 01:08:54;;;;;;;20.67;19.50;;;;;;;;;;5076011;28;20449;-80
2023/09/05 01:11:22;;;;;;;20.33;18.97;;;;;;;;;;5075970;28;20431;-80
2023/09/05 01:13:51;;;;;;;20.00;18.90;;;;;;;;;;5076169;28;20444;-78
2023/09/05 01:16:18;;;;;;;19.90;18.73;;;;;;;;;;5076133;28;20425;-79
2023/09/05 01:18:46;;;;;;;19.80;18.60;;;;;;;;;;5075913;28;20424;-79
2023/09/05 01:21:19;;;;;;;20.23;19.10;;;;;;;;;;5075382;28;20437;-79
2023/09/05 01:23:46;;;;;;;20.27;18.90;;;;;;;;;;5075482;28;20475;-79
2023/09/05 01:26:15;;;;;;;20.27;19.17;;;;;;;;;;5076117;28;20474;-80
2023/09/05 01:28:44;;;;;;;21.27;19.33;;;;;;;;;;5078906;28;20454;-79
2023/09/05 01:31:12;;;;;;;20.53;19.43;;;;;;;;;;5075031;28;20811;-79
2023/09/05 01:33:40;;;;;;;21.13;19.80;;;;;;;;;;5075220;28;20470;-79
2023/09/05 01:36:07;;;;;;;20.70;19.60;;;;;;;;;;5075703;28;20442;-79
2023/09/05 01:38:35;;;;;;;20.60;19.20;;;;;;;;;;5075219;28;20853;-80
2023/09/05 01:41:02;;;;;;;20.60;19.40;;;;;;;;;;5075499;28;20478;-80
2023/09/05 01:43:30;;;;;;;20.53;19.43;;;;;;;;;;5075564;28;20504;-80
2023/09/05 01:45:57;;;;;;;20.80;19.70;;;;;;;;;;5075820;28;20503;-78
2023/09/05 01:48:24;;;;;;;20.63;19.53;;;;;;;;;;5075201;28;20431;-79
2023/09/05 01:50:51;;;;;;;20.53;19.50;;;;;;;;;;5074740;28;20428;-79
2023/09/05 01:53:18;;;;;;;20.47;19.37;;;;;;;;;;5075129;28;20469;-78
2023/09/05 01:55:45;;;;;;;20.63;19.53;;;;;;;;;;5075823;28;20476;-79
2023/09/05 01:58:12;;;;;;;20.50;19.40;;;;;;;;;;5074911;28;20446;-80
2023/09/05 02:00:41;;;;;;;21.53;20.03;;;;;;;;;;5074040;28;20484;-78
2023/09/05 02:03:08;;;;;;;20.40;19.30;;;;;;;;;;5074325;28;20468;-77
2023/09/05 02:05:35;;;;;;;20.63;19.50;;;;;;;;;;5074844;28;20437;-80
2023/09/05 02:08:02;;;;;;;20.57;19.27;;;;;;;;;;5075635;28;20445;-80
2023/09/05 02:10:29;;;;;;;19.80;18.70;;;;;;;;;;5074319;28;20425;-79
2023/09/05 02:12:57;;;;;;;20.27;19.17;;;;;;;;;;5075250;28;20466;-78
2023/09/05 02:15:24;;;;;;;20.07;19.07;;;;;;;;;;5074948;28;20413;-78
2023/09/05 02:17:55;;;;;;;20.13;19.00;;;;;;;;;;5075064;28;20428;-80
2023/09/05 02:20:23;;;;;;;19.83;18.83;;;;;;;;;;5087930;28;20477;-80
2023/09/05 02:22:50;;;;;;;20.73;19.57;;;;;;;;;;5077950;28;20499;-80
2023/09/05 02:25:17;;;;;;;20.13;19.13;;;;;;;;;;5074336;28;20930;-79
2023/09/05 02:27:44;;;;;;;20.33;19.20;;;;;;;;;;5073917;28;20448;-80
2023/09/05 02:30:12;;;;;;;19.50;18.50;;;;;;;;;;5073322;28;20453;-80
2023/09/05 02:32:39;;;;;;;20.50;19.20;;;;;;;;;;5073781;28;20469;-79
2023/09/05 02:35:08;;;;;;;20.40;19.00;;;;;;;;;;5073990;28;20450;-80
2023/09/05 02:37:35;;;;;;;20.40;19.30;;;;;;;;;;5074128;28;21011;-79
2023/09/05 02:40:07;;;;;;;20.43;18.93;;;;;;;;;;5073558;28;20519;-78
2023/09/05 02:42:34;;;;;;;20.80;19.50;;;;;;;;;;5074222;28;20462;-80
2023/09/05 02:45:01;;;;;;;20.97;19.57;;;;;;;;;;5073799;28;20438;-80
2023/09/05 02:47:28;;;;;;;20.70;19.50;;;;;;;;;;5074053;28;20499;-79
2023/09/05 02:49:55;;;;;;;19.77;18.67;;;;;;;;;;5073279;28;20456;-79
2023/09/05 02:52:24;;;;;;;20.77;19.57;;;;;;;;;;5073730;28;20461;-79
2023/09/05 02:54:51;;;;;;;20.20;19.10;;;;;;;;;;5073479;28;20457;-78
2023/09/05 02:57:18;;;;;;;20.20;19.00;;;;;;;;;;5074255;28;20446;-80
2023/09/05 02:59:45;;;;;;;20.67;19.57;;;;;;;;;;5074410;28;20454;-80
2023/09/05 03:02:12;;;;;;;20.57;19.30;;;;;;;;;;5073989;28;20458;-78
2023/09/05 03:04:39;;;;;;;21.13;19.83;;;;;;;;;;5073317;28;20493;-80
2023/09/05 03:07:06;;;;;;;19.67;18.67;;;;;;;;;;5073692;28;20454;-79
2023/09/05 03:09:35;;;;;;;21.00;19.70;;;;;;;;;;5073466;28;20460;-79
2023/09/05 03:12:03;;;;;;;20.90;19.70;;;;;;;;;;5073260;28;20476;-79
2023/09/05 03:14:30;;;;;;;20.97;19.67;;;;;;;;;;5074348;28;20470;-79
2023/09/05 03:16:58;;;;;;;20.23;19.10;;;;;;;;;;5078418;28;20457;-79
2023/09/05 03:19:25;;;;;;;20.40;19.30;;;;;;;;;;5080750;28;20468;-80
2023/09/05 03:21:54;;;;;;;19.97;18.87;;;;;;;;;;5084939;28;20471;-79
2023/09/05 03:24:24;;;;;;;20.30;19.20;;;;;;;;;;5073250;28;21064;-79
2023/09/05 03:26:53;;;;;;;20.90;19.67;;;;;;;;;;5074411;28;20442;-79
2023/09/05 03:29:20;;;;;;;20.60;19.40;;;;;;;;;;5073785;28;20453;-78
2023/09/05 03:31:47;;;;;;;21.27;19.87;;;;;;;;;;5072921;28;20420;-79
2023/09/05 03:34:14;;;;;;;19.80;18.63;;;;;;;;;;5073251;28;20476;-79
2023/09/05 03:36:41;;;;;;;21.53;20.40;;;;;;;;;;5077268;27;20483;-79
2023/09/05 03:39:08;;;;;;;20.43;19.13;;;;;;;;;;5073408;28;20420;-78
2023/09/05 03:41:35;;;;;;;19.73;18.63;;;;;;;;;;5072969;28;20472;-79
2023/09/05 03:44:03;;;;;;;20.40;19.23;;;;;;;;;;5073024;28;20511;-78
2023/09/05 03:46:30;;;;;;;21.27;20.07;;;;;;;;;;5073770;28;20424;-78
2023/09/05 03:48:58;;;;;;;21.80;20.20;;;;;;;;;;5073345;28;20457;-78
2023/09/05 03:51:27;;;;;;;20.73;19.57;;;;;;;;;;5072979;28;20447;-80
2023/09/05 03:53:54;;;;;;;21.03;19.83;;;;;;;;;;5072661;28;20445;-79
2023/09/05 03:56:22;;;;;;;20.60;19.50;;;;;;;;;;5073570;28;20412;-79
2023/09/05 03:58:49;;;;;;;20.10;19.00;;;;;;;;;;5073514;28;20456;-79
2023/09/05 04:01:18;;;;;;;20.37;19.17;;;;;;;;;;5072751;28;20432;-79
2023/09/05 04:03:46;;;;;;;21.20;19.80;;;;;;;;;;5073353;28;20487;-79
2023/09/05 04:06:13;;;;;;;20.60;19.50;;;;;;;;;;5073016;28;20479;-80
2023/09/05 04:08:40;;;;;;;20.70;19.50;;;;;;;;;;5073445;28;20427;-79
2023/09/05 04:11:07;;;;;;;20.83;19.60;;;;;;;;;;5075007;28;20428;-80
2023/09/05 04:13:35;;;;;;;20.73;19.43;;;;;;;;;;5076790;28;20447;-80
2023/09/05 04:16:05;;;;;;;20.77;19.67;;;;;;;;;;5076940;28;20443;-79
2023/09/05 04:18:34;;;;;;;20.97;19.87;;;;;;;;;;5077582;28;20515;-79
2023/09/05 04:21:01;;;;;;;21.43;20.17;;;;;;;;;;5076566;28;20424;-80
2023/09/05 04:23:28;;;;;;;21.03;19.83;;;;;;;;;;5076154;28;20489;-80
2023/09/05 04:25:59;;;;;;;21.60;20.20;;;;;;;;;;5076254;28;20776;-79
2023/09/05 04:28:26;;;;;;;21.40;20.20;;;;;;;;;;5076409;28;20459;-79
2023/09/05 04:30:55;;;;;;;20.90;19.80;;;;;;;;;;5076342;28;20435;-79
2023/09/05 04:33:22;;;;;;;21.07;19.87;;;;;;;;;;5075921;28;21024;-80
2023/09/05 04:35:50;;;;;;;21.17;19.87;;;;;;;;;;5076681;28;20819;-79
2023/09/05 04:38:17;;;;;;;21.27;20.00;;;;;;;;;;5076828;28;20433;-79
2023/09/05 04:40:44;;;;;;;21.27;20.07;;;;;;;;;;5075198;28;20444;-79
2023/09/05 04:43:11;;;;;;;20.70;19.60;;;;;;;;;;5076232;28;20436;-78
2023/09/05 04:45:38;;;;;;;21.17;19.80;;;;;;;;;;5076723;28;20480;-78
2023/09/05 04:48:06;;;;;;;21.93;20.50;;;;;;;;;;5076391;28;20428;-79
2023/09/05 04:50:33;;;;;;;21.73;20.20;;;;;;;;;;5093385;28;20412;-80
2023/09/05 04:53:01;;;;;;;21.67;20.37;;;;;;;;;;5096279;28;20464;-79
2023/09/05 04:55:28;;;;;;;21.70;20.50;;;;;;;;;;5096147;28;20424;-79
2023/09/05 04:57:55;;;;;;;20.80;19.70;;;;;;;;;;5095421;28;20416;-80
2023/09/05 05:00:23;;;;;;;21.23;19.77;;;;;;;;;;5075604;28;20444;-80
2023/09/05 05:02:51;;;;;;;21.60;20.30;;;;;;;;;;5075785;28;20497;-80
2023/09/05 05:05:18;;;;;;;21.07;19.57;;;;;;;;;;5076237;28;20524;-79
2023/09/05 05:07:46;;;;;;;21.33;20.13;;;;;;;;;;5085820;28;20449;-79
2023/09/05 05:10:14;;;;;;;21.40;20.20;;;;;;;;;;5082583;28;20485;-79
2023/09/05 05:12:41;;;;;;;21.13;20.00;;;;;;;;;;5075849;28;20473;-80
2023/09/05 05:15:09;;;;;;;21.80;20.60;;;;;;;;;;5076371;28;20473;-79
2023/09/05 05:17:36;;;;;;;20.93;19.73;;;;;;;;;;5076154;28;20416;-79
2023/09/05 05:20:04;;;;;;;21.10;19.80;;;;;;;;;;5075029;28;21496;-79
2023/09/05 05:22:31;;;;;;;21.23;19.97;;;;;;;;;;5074670;28;20474;-79
2023/09/05 05:24:58;;;;;;;20.97;19.77;;;;;;;;;;5075556;28;20485;-79
2023/09/05 05:27:27;;;;;;;21.23;20.03;;;;;;;;;;5075783;28;20420;-80
2023/09/05 05:29:54;;;;;;;21.30;19.90;;;;;;;;;;5075712;28;20810;-79
2023/09/05 05:32:21;;;;;;;21.23;20.03;;;;;;;;;;5075234;28;20457;-80
2023/09/05 05:34:48;;;;;;;20.93;19.83;;;;;;;;;;5075761;28;20851;-80
2023/09/05 05:37:16;;;;;;;20.23;19.13;;;;;;;;;;5075335;28;20438;-78
2023/09/05 05:39:43;;;;;;;21.30;20.10;;;;;;;;;;5074680;28;20453;-79
2023/09/05 05:42:10;;;;;;;19.77;18.63;;;;;;;;;;5075349;28;20457;-79
2023/09/05 05:44:39;;;;;;;21.60;20.40;;;;;;;;;;5074956;28;20789;-79
2023/09/05 05:47:06;;;;;;;21.20;20.10;;;;;;;;;;5074971;28;20432;-80
2023/09/05 05:49:34;;;;;;;20.53;19.17;;;;;;;;;;5074689;28;20447;-80
2023/09/05 05:52:01;;;;;;;21.00;19.90;;;;;;;;;;5074279;28;20423;-80
2023/09/05 05:54:28;;;;;;;21.40;20.00;;;;;;;;;;5074724;28;20427;-79
2023/09/05 05:56:56;;;;;;;20.67;19.53;;;;;;;;;;5075037;28;20424;-80
2023/09/05 05:59:24;;;;;;;21.17;19.80;;;;;;;;;;5075169;28;20456;-80
2023/09/05 06:01:53;;;;;;;21.20;19.80;;;;;;;;;;5078941;28;20976;-79
2023/09/05 06:04:20;;;;;;;20.43;19.27;;;;;;;;;;5093903;28;20487;-79
2023/09/05 06:06:48;;;;;;;19.87;18.77;;;;;;;;;;5095268;28;20449;-80
2023/09/05 06:09:16;;;;;;;20.83;19.63;;;;;;;;;;5095161;28;20442;-80
2023/09/05 06:11:43;;;;;;;19.97;18.87;;;;;;;;;;5094615;28;20449;-79
2023/09/05 06:14:10;;;;;;;19.80;18.60;;;;;;;;;;5095193;28;20988;-79
2023/09/05 06:16:37;;;;;;;20.97;19.67;;;;;;;;;;5094707;28;20480;-79
2023/09/05 06:19:07;;;;;;;20.83;19.43;;;;;;;;;;5094710;28;21316;-79
2023/09/05 06:21:34;;;;;;;21.30;20.00;;;;;;;;;;5093289;28;20433;-80
2023/09/05 06:24:01;;;;;;;21.10;19.50;;;;;;;;;;5093660;27;21339;-79
2023/09/05 06:26:28;;;;;;;21.37;20.17;;;;;;;;;;5083570;28;20431;-79
2023/09/05 06:28:55;;;;;;;20.17;18.87;;;;;;;;;;5086146;28;20466;-77
2023/09/05 06:31:22;;;;;;;21.40;20.00;;;;;;;;;;5083929;28;20453;-78
2023/09/05 06:33:49;;;;;;;20.27;19.17;;;;;;;;;;5091596;28;20427;-79
2023/09/05 06:36:18;;;;;;;20.10;18.90;;;;;;;;;;5093561;28;20476;-79
2023/09/05 06:38:45;;;;;;;21.00;19.70;;;;;;;;;;5093156;28;20440;-79
2023/09/05 06:41:12;;;;;;;19.63;18.60;;;;;;;;;;5092886;28;20419;-78
2023/09/05 06:43:39;;;;;;;20.90;19.70;;;;;;;;;;5093238;28;20479;-79
2023/09/05 06:46:07;;;;;;;20.50;19.40;;;;;;;;;;5093069;28;20424;-78
2023/09/05 06:48:35;;;;;;;20.80;19.60;;;;;;;;;;5093308;28;20816;-78
2023/09/05 06:51:02;;;;;;;19.80;18.70;;;;;;;;;;5092473;28;20452;-78
2023/09/05 06:53:31;;;;;;;21.30;19.83;;;;;;;;;;5093090;28;20468;-79
2023/09/05 06:55:58;;;;;;;20.70;19.57;;;;;;;;;;5093458;28;20424;-78
2023/09/05 06:58:26;;;;;;;21.27;20.00;;;;;;;;;;5089527;28;20451;-78
2023/09/05 07:00:55;;;;;;;20.80;19.70;;;;;;;;;;5086081;28;20952;-79
2023/09/05 07:03:22;;;;;;;20.20;19.10;;;;;;;;;;5092831;28;20883;-78
2023/09/05 07:05:49;;;;;;;20.10;19.00;;;;;;;;;;5092577;28;20462;-78
2023/09/05 07:08:16;;;;;;;20.83;19.73;;;;;;;;;;5093534;28;20424;-79
2023/09/05 07:10:45;;;;;;;21.57;20.27;;;;;;;;;;5092716;28;20989;-78
2023/09/05 07:13:12;;;;;;;21.50;20.33;;;;;;;;;;5093615;28;20447;-79
2023/09/05 07:15:39;;;;;;;21.43;20.13;;;;;;;;;;5093529;28;20441;-83
2023/09/05 07:18:06;;;;;;;22.07;20.67;;;;;;;;;;5097937;28;21275;-83
2023/09/05 07:20:33;;;;;;;20.80;19.70;;;;;;;;;;5096331;28;20432;-82
2023/09/05 07:23:00;;;;;;;21.83;20.53;;;;;;;;;;5101307;28;20462;-83
2023/09/05 07:25:27;;;;;;;21.00;19.80;;;;;;;;;;5121145;28;20483;-83
2023/09/05 07:27:56;;;;;;;21.53;20.23;;;;;;;;;;5122986;28;20402;-85
2023/09/05 07:30:23;;;;;;;21.57;20.37;;;;;;;;;;5123103;28;20547;-83
2023/09/05 07:32:50;;;;;;;22.00;20.70;;;;;;;;;;5107552;28;20475;-80
2023/09/05 07:35:17;;;;;;;22.00;20.70;;;;;;;;;;5076077;28;20480;-80
2023/09/05 07:37:44;;;;;;;22.30;21.03;;;;;;;;;;5094298;28;20780;-80
2023/09/05 07:40:14;;;;;;;22.57;21.27;;;;;;;;;;5093830;28;20449;-80
2023/09/05 07:42:42;;;;;;;22.10;20.80;;;;;;;;;;5095392;28;20826;-82
2023/09/05 07:45:11;;;;;;;22.40;21.20;;;;;;;;;;5094245;28;20523;-80
2023/09/05 07:47:38;;;;;;;21.50;20.20;;;;;;;;;;5097689;28;20928;-80
2023/09/05 07:50:05;;;;;;;22.50;21.20;;;;;;;;;;5097382;28;20998;-80
2023/09/05 07:52:33;;;;;;;21.00;19.80;;;;;;;;;;5097905;28;20474;-79
2023/09/05 07:55:01;;;;;;;22.80;21.40;;;;;;;;;;5097375;28;21002;-79
2023/09/05 07:57:28;;;;;;;22.47;20.90;;;;;;;;;;5097533;28;20448;-79
2023/09/05 07:59:55;;;;;;;22.13;20.83;;;;;;;;;;5096496;28;20447;-79
2023/09/05 08:02:23;;;;;;;21.47;20.27;;;;;;;;;;5096993;28;20472;-79
2023/09/05 08:04:50;;;;;;;21.73;20.50;;;;;;;;;;5097717;28;20455;-87
2023/09/05 08:07:17;;;;;;;22.43;21.13;;;;;;;;;;5103073;28;20432;-86
2023/09/05 08:09:47;;;;;;;21.23;20.03;;;;;;;;;;5101965;28;20565;-89
2023/09/05 08:12:14;;;;;;;21.57;20.27;;;;;;;;;;5099615;28;20505;-78
2023/09/05 08:14:42;;;;;;;22.23;20.93;;;;;;;;;;5097598;28;20501;-88
2023/09/05 08:17:09;;;;;;;22.23;20.90;;;;;;;;;;5088418;28;20442;-86
2023/09/05 08:19:37;;;;;;;22.90;21.50;;;;;;;;;;5086281;28;20431;-88
2023/09/05 08:22:05;;;;;;;22.07;20.50;;;;;;;;;;5100593;28;20418;-87
2023/09/05 08:24:44;;;;;;;22.07;20.77;;;;;;;;;;5098250;28;20492;-87
2023/09/05 08:27:13;;;;;;;23.50;21.90;;;;;;;;;;5099391;28;20549;-80
2023/09/05 08:29:41;;;;;;;22.67;21.47;;;;;;;;;;5079981;28;20997;-79
2023/09/05 08:32:09;;;;;;;23.57;22.27;;;;;;;;;;5075350;28;20449;-78
2023/09/05 08:34:40;;;;;;;22.80;21.20;;;;;;;;;;5075441;28;20420;-81
2023/09/05 08:37:07;;;;;;;22.77;21.47;;;;;;;;;;5075168;28;20483;-78
2023/09/05 08:39:34;;;;;;;22.00;20.77;;;;;;;;;;5075029;28;20435;-78
2023/09/05 08:42:04;;;;;;;21.80;20.60;;;;;;;;;;5074823;28;20507;-79
2023/09/05 08:44:31;;;;;;;22.00;20.80;;;;;;;;;;5084611;27;20474;-77
2023/09/05 08:47:02;;;;;;;22.33;21.00;;;;;;;;;;5075964;28;20440;-78
2023/09/05 08:49:30;;;;;;;22.67;21.10;;;;;;;;;;5088219;28;21226;-78
2023/09/05 08:52:02;;;;;;;21.97;20.60;;;;;;;;;;5087743;28;20967;-79
2023/09/05 08:54:29;;;;;;;22.73;21.23;;;;;;;;;;5075004;28;20466;-78
2023/09/05 08:56:56;;;;;;;22.40;21.10;;;;;;;;;;5072936;28;20446;-78
2023/09/05 08:59:23;;;;;;;22.97;21.67;;;;;;;;;;5082147;28;20472;-78
2023/09/05 09:01:50;;;;;;;22.30;21.10;;;;;;;;;;5091101;28;20446;-79
2023/09/05 09:04:19;;;;;;;21.97;20.50;;;;;;;;;;5073048;28;20470;-78
2023/09/05 09:06:54;;;;;;;22.73;21.43;;;;;;;;;;5073063;28;20423;-77
2023/09/05 09:09:35;;;;;;;22.50;21.30;;;;;;;;;;5076098;28;20458;-79
2023/09/05 09:12:03;;;;;;;22.33;21.13;;;;;;;;;;5073607;28;20420;-81
2023/09/05 09:14:30;;;;;;;22.73;21.30;;;;;;;;;;5073221;28;20464;-78
2023/09/05 09:17:00;;;;;;;23.10;21.70;;;;;;;;;;5073684;28;20455;-79
2023/09/05 09:19:29;;;;;;;22.80;21.50;;;;;;;;;;5074315;28;20499;-79
2023/09/05 09:21:57;;;;;;;23.80;22.40;;;;;;;;;;5073679;28;20454;-79
2023/09/05 09:24:25;;;;;;;22.93;21.70;;;;;;;;;;5073534;28;20461;-79
2023/09/05 09:26:55;;;;;;;23.10;21.80;;;;;;;;;;5078284;28;20424;-79
2023/09/05 09:29:22;;;;;;;22.57;21.30;;;;;;;;;;5093832;28;20543;-79
2023/09/05 09:31:49;;;;;;;23.13;21.73;;;;;;;;;;5092358;28;20455;-78
2023/09/05 09:34:20;;;;;;;23.60;22.30;;;;;;;;;;5093996;28;20443;-79
2023/09/05 09:36:53;;;;;;;23.50;22.20;;;;;;;;;;5094269;28;20433;-79
2023/09/05 09:39:20;;;;;;;23.10;21.80;;;;;;;;;;5093941;28;20895;-78
2023/09/05 09:41:48;;;;;;;22.70;21.40;;;;;;;;;;5093701;28;20811;-81
2023/09/05 09:44:26;;;;;;;22.60;21.20;;;;;;;;;;5095653;28;20472;-79
2023/09/05 09:46:53;;;;;;;23.40;22.10;;;;;;;;;;5088437;28;20587;-79
2023/09/05 09:49:21;;;;;;;22.70;21.40;;;;;;;;;;5094058;28;20930;-78
2023/09/05 09:51:49;;;;;;;22.90;21.40;;;;;;;;;;5093062;28;20457;-79
2023/09/05 09:54:18;;;;;;;23.07;21.73;;;;;;;;;;5093989;28;20457;-79
2023/09/05 09:56:46;;;;;;;23.17;21.77;;;;;;;;;;5093842;28;20445;-80
2023/09/05 09:59:14;;;;;;;22.30;20.90;;;;;;;;;;5093597;28;21136;-78
2023/09/05 10:01:43;;;;;;;22.10;20.90;;;;;;;;;;5093084;28;20464;-79
2023/09/05 10:04:10;;;;;;;22.80;21.23;;;;;;;;;;5094045;28;20473;-78
2023/09/05 10:06:38;;;;;;;23.67;22.17;;;;;;;;;;5093942;28;20520;-79
2023/09/05 10:09:05;;;;;;;23.80;22.40;;;;;;;;;;5093497;28;20441;-79
2023/09/05 10:11:34;;;;;;;22.90;21.50;;;;;;;;;;5093367;28;20449;-79
2023/09/05 10:14:01;;;;;;;22.20;20.90;;;;;;;;;;5094084;28;20504;-78
2023/09/05 10:16:28;;;;;;;22.67;21.37;;;;;;;;;;5093299;28;20785;-79
2023/09/05 10:18:58;;;;;;;22.80;21.40;;;;;;;;;;5094044;28;20739;-79
2023/09/05 10:21:25;;;;;;;23.50;21.73;;;;;;;;;;5093207;28;20441;-78
2023/09/05 10:23:53;;;;;;;22.73;21.33;;;;;;;;;;5093470;28;20465;-79
2023/09/05 10:26:20;;;;;;;22.90;21.50;;;;;;;;;;5093449;28;20458;-79
2023/09/05 10:28:48;;;;;;;22.97;21.57;;;;;;;;;;5093934;28;20444;-79
2023/09/05 10:31:15;;;;;;;23.03;21.63;;;;;;;;;;5092820;28;20441;-79
2023/09/05 10:33:45;;;;;;;24.00;22.50;;;;;;;;;;5093574;28;20487;-79
2023/09/05 10:36:36;;;;;;;24.43;22.93;;;;;;;;;;5093374;28;20757;-78
2023/09/05 10:39:17;;;;;;;23.47;22.17;;;;;;;;;;5092691;28;20418;-79
2023/09/05 10:41:44;;;;;;;23.43;22.00;;;;;;;;;;5092295;28;20884;-78
2023/09/05 10:44:11;;;;;;;23.47;21.97;;;;;;;;;;5093232;28;20472;-78
2023/09/05 10:46:40;;;;;;;23.77;22.37;;;;;;;;;;5093031;28;20489;-79
2023/09/05 10:49:12;;;;;;;23.90;22.50;;;;;;;;;;5093041;28;20503;-79
2023/09/05 10:51:54;;;;;;;22.37;20.97;;;;;;;;;;5092358;28;20452;-79
2023/09/05 10:54:30;;;;;;;22.97;21.47;;;;;;;;;;5092906;28;20471;-80
2023/09/05 10:56:58;;;;;;;22.07;20.77;;;;;;;;;;5093298;28;20400;-79
2023/09/05 10:59:26;;;;;;;23.27;21.87;;;;;;;;;;5092823;28;20451;-78
2023/09/05 11:01:54;;;;;;;23.63;22.23;;;;;;;;;;5092381;28;20449;-79
2023/09/05 11:04:34;;;;;;;22.73;21.43;;;;;;;;;;5093076;28;20473;-79
2023/09/05 11:07:06;;;;;;;22.30;21.00;;;;;;;;;;5092411;28;21008;-78
2023/09/05 11:09:50;;;;;;;21.80;20.53;;;;;;;;;;5093052;28;20512;-79
2023/09/05 11:12:17;;;;;;;22.40;21.10;;;;;;;;;;5092512;28;21157;-79
2023/09/05 11:14:44;;;;;;;22.63;21.33;;;;;;;;;;5092728;28;20923;-78
2023/09/05 11:17:15;;;;;;;22.80;21.50;;;;;;;;;;5092415;28;20441;-78
2023/09/05 11:19:45;;;;;;;23.10;21.80;;;;;;;;;;5088745;28;20513;-78
2023/09/05 11:22:15;;;;;;;22.70;21.40;;;;;;;;;;5082850;28;20435;-78
2023/09/05 11:24:46;;;;;;;22.80;21.50;;;;;;;;;;5092865;28;20481;-79
2023/09/05 11:27:14;;;;;;;23.33;21.93;;;;;;;;;;5091824;28;20480;-77
2023/09/05 11:29:42;;;;;;;22.70;21.20;;;;;;;;;;5092132;28;20997;-79
2023/09/05 11:32:13;;;;;;;22.90;21.50;;;;;;;;;;5092544;28;20475;-78
2023/09/05 11:34:41;;;;;;;23.00;21.60;;;;;;;;;;5093264;28;20416;-80
2023/09/05 11:37:08;;;;;;;22.27;20.97;;;;;;;;;;5093303;28;20443;-79
2023/09/05 11:39:35;;;;;;;22.20;20.80;;;;;;;;;;5093277;28;20511;-78
2023/09/05 11:42:02;;;;;;;22.60;21.30;;;;;;;;;;5091842;28;20448;-79
2023/09/05 11:44:34;;;;;;;22.70;21.30;;;;;;;;;;5092643;28;20453;-79
2023/09/05 11:47:02;;;;;;;23.47;22.17;;;;;;;;;;5092427;28;20580;-79
2023/09/05 11:49:30;;;;;;;22.97;21.57;;;;;;;;;;5092790;28;20449;-79
2023/09/05 11:51:58;;;;;;;24.03;22.43;;;;;;;;;;5092571;28;20445;-79
2023/09/05 11:54:25;;;;;;;23.67;22.37;;;;;;;;;;5093355;28;20469;-79
2023/09/05 11:56:52;;;;;;;22.73;21.43;;;;;;;;;;5092909;28;20890;-80
2023/09/05 11:59:19;;;;;;;22.93;21.63;;;;;;;;;;5093051;28;20427;-80
2023/09/05 12:01:47;;;;;;;23.23;21.87;;;;;;;;;;5092693;28;20448;-78
2023/09/05 12:04:16;;;;;;;22.53;21.23;;;;;;;;;;5093306;28;20443;-79
2023/09/05 12:06:43;;;;;;;23.20;21.90;;;;;;;;;;5092573;28;21014;-79
2023/09/05 12:09:10;;;;;;;23.43;22.13;;;;;;;;;;5093121;28;20448;-79
2023/09/05 12:11:37;;;;;;;23.17;21.67;;;;;;;;;;5092586;28;20855;-80
2023/09/05 12:14:04;;;;;;;24.43;22.70;;;;;;;;;;5092694;28;20476;-78
2023/09/05 12:16:31;;;;;;;23.93;22.53;;;;;;;;;;5092362;28;20452;-79
2023/09/05 12:19:00;;;;;;;22.80;21.50;;;;;;;;;;5092158;28;20449;-79
2023/09/05 12:21:39;;;;;;;22.30;20.90;;;;;;;;;;5091569;28;20445;-79
2023/09/05 12:24:19;;;;;;;22.60;21.30;;;;;;;;;;5092308;28;20968;-78
2023/09/05 12:26:46;;;;;;;22.40;21.10;;;;;;;;;;5092359;28;20488;-79
2023/09/05 12:29:13;;;;;;;22.53;21.23;;;;;;;;;;5105799;28;20463;-78
2023/09/05 12:31:40;;;;;;;22.53;21.23;;;;;;;;;;5072187;28;20459;-78
2023/09/05 12:34:08;;;;;;;22.37;21.03;;;;;;;;;;5075091;28;20477;-79
2023/09/05 12:36:35;;;;;;;21.77;20.57;;;;;;;;;;5075456;28;20452;-79
2023/09/05 12:39:03;;;;;;;22.50;21.20;;;;;;;;;;5074296;28;20457;-79
2023/09/05 12:41:30;;;;;;;22.10;20.80;;;;;;;;;;5075161;28;20857;-80
2023/09/05 12:43:58;;;;;;;22.40;21.10;;;;;;;;;;5076470;28;20462;-79
2023/09/05 12:46:25;;;;;;;23.03;21.63;;;;;;;;;;5075564;28;20528;-79
2023/09/05 12:48:54;;;;;;;23.20;21.90;;;;;;;;;;5075627;28;21190;-79
2023/09/05 12:51:23;;;;;;;23.10;21.80;;;;;;;;;;5075063;28;20457;-79
2023/09/05 12:53:51;;;;;;;23.53;22.13;;;;;;;;;;5075723;28;20823;-80
2023/09/05 12:56:18;;;;;;;23.83;22.43;;;;;;;;;;5075598;28;21298;-80
2023/09/05 12:58:45;;;;;;;23.00;21.73;;;;;;;;;;5075862;28;20561;-79
2023/09/05 13:01:14;;;;;;;23.57;22.27;;;;;;;;;;5095236;28;20427;-79
2023/09/05 13:03:42;;;;;;;23.27;21.87;;;;;;;;;;5095801;28;20460;-78
2023/09/05 13:06:09;;;;;;;23.70;22.37;;;;;;;;;;5096071;28;20614;-79
2023/09/05 13:08:37;;;;;;;23.37;21.90;;;;;;;;;;5095521;28;20437;-79
2023/09/05 13:11:04;;;;;;;23.03;21.73;;;;;;;;;;5095011;28;20445;-80
2023/09/05 13:13:31;;;;;;;22.50;21.13;;;;;;;;;;5091213;28;20493;-79
2023/09/05 13:15:58;;;;;;;23.07;21.77;;;;;;;;;;5084037;28;20450;-79
2023/09/05 13:18:25;;;;;;;22.97;21.57;;;;;;;;;;5075516;28;20872;-80
2023/09/05 13:20:52;;;;;;;23.27;21.77;;;;;;;;;;5074856;28;20424;-79
2023/09/05 13:23:19;;;;;;;23.87;22.40;;;;;;;;;;5075432;28;20477;-79
2023/09/05 13:25:48;;;;;;;23.37;22.07;;;;;;;;;;5075480;28;20470;-79
2023/09/05 13:28:15;;;;;;;23.17;21.90;;;;;;;;;;5075688;28;20464;-79
2023/09/05 13:30:42;;;;;;;22.40;21.20;;;;;;;;;;5074730;28;20458;-79
2023/09/05 13:33:10;;;;;;;22.63;21.33;;;;;;;;;;5086760;27;20501;-78
2023/09/05 13:35:37;;;;;;;22.20;20.80;;;;;;;;;;5078396;28;20481;-80
2023/09/05 13:38:04;;;;;;;22.50;21.10;;;;;;;;;;5074573;28;20860;-79
2023/09/05 13:40:31;;;;;;;22.70;21.33;;;;;;;;;;5074210;28;20446;-79
2023/09/05 13:43:01;;;;;;;22.60;21.20;;;;;;;;;;5074124;28;20520;-79
2023/09/05 13:45:28;;;;;;;23.10;21.60;;;;;;;;;;5083238;28;20467;-80
2023/09/05 13:47:55;;;;;;;23.50;22.20;;;;;;;;;;5074920;28;21012;-79
2023/09/05 13:50:23;;;;;;;22.80;21.50;;;;;;;;;;5074102;28;20453;-80
2023/09/05 13:52:50;;;;;;;23.83;22.23;;;;;;;;;;5074453;28;20468;-79
2023/09/05 13:55:18;;;;;;;22.63;21.33;;;;;;;;;;5074701;28;20934;-79
2023/09/05 13:57:48;;;;;;;23.10;21.80;;;;;;;;;;5074715;28;20469;-80
2023/09/05 14:00:19;;;;;;;22.80;21.50;;;;;;;;;;5073751;28;20855;-79
2023/09/05 14:02:47;;;;;;;22.47;21.20;;;;;;;;;;5074465;28;20469;-79
2023/09/05 14:05:14;;;;;;;23.20;21.80;;;;;;;;;;5074789;28;20450;-79
2023/09/05 14:07:41;;;;;;;23.07;21.67;;;;;;;;;;5074360;28;20486;-80
2023/09/05 14:10:10;;;;;;;21.47;20.27;;;;;;;;;;5073210;28;20454;-80
2023/09/05 14:12:37;;;;;;;22.50;21.20;;;;;;;;;;5074220;28;20483;-79
2023/09/05 14:15:04;;;;;;;22.37;21.17;;;;;;;;;;5074114;28;20446;-79
2023/09/05 14:17:33;;;;;;;22.10;20.80;;;;;;;;;;5074254;28;20446;-80
2023/09/05 14:20:00;;;;;;;22.37;21.07;;;;;;;;;;5074326;28;20450;-80
2023/09/05 14:22:27;;;;;;;22.20;20.90;;;;;;;;;;5073892;28;20466;-79